Time;durP1;ratioP1;P1;durP2;ratioP2;P2;SDS_P1;SDS_P2;PMS_P1;PMS_P2;Temp;Humidity;BMP_temperature;BMP_pressure;BME280_temperature;BME280_humidity;BME280_pressure;Samples;Min_cycle;Max_cycle;Signal;HPM_P1;HPM_P2
2023/01/07 04:02:19;;;;;;;;;;;11.10;99.90;;;;;;5329276;23;19977;-74
2023/01/07 04:04:47;;;;;;;;;;;11.10;99.90;;;;;;4975064;28;19941;-73
2023/01/07 04:07:15;;;;;;;;;;;11.00;99.90;;;;;;4971424;28;19937;-73
2023/01/07 04:09:42;;;;;;;;;;;11.00;99.90;;;;;;4970599;28;19927;-76
2023/01/07 04:12:09;;;;;;;;;;;11.00;99.90;;;;;;4970165;28;19930;-73
2023/01/07 04:14:36;;;;;;;;;;;11.00;99.90;;;;;;4971606;28;19926;-74
2023/01/07 04:17:02;;;;;;;;;;;11.00;99.90;;;;;;4969415;28;19985;-77
2023/01/07 04:19:31;;;;;;;;;;;11.00;99.90;;;;;;4969906;28;19942;-74
2023/01/07 04:21:58;;;;;;;;;;;10.90;99.90;;;;;;4970069;28;19926;-73
2023/01/07 04:24:25;;;;;;;;;;;10.90;99.90;;;;;;4970495;28;20400;-74
2023/01/07 04:26:52;;;;;;;;;;;11.00;99.90;;;;;;4970383;28;19926;-74
2023/01/07 04:29:20;;;;;;;;;;;11.00;99.90;;;;;;4965702;28;20336;-75
2023/01/07 04:31:47;;;;;;;;;;;11.00;99.90;;;;;;4971477;28;19934;-74
2023/01/07 04:34:14;;;;;;;;;;;11.00;99.90;;;;;;4971918;28;19929;-74
2023/01/07 04:36:43;;;;;;;;;;;11.00;99.90;;;;;;4971395;28;19929;-74
2023/01/07 04:39:11;;;;;;;;;;;11.00;99.90;;;;;;4970965;28;19930;-73
2023/01/07 04:41:38;;;;;;;;;;;11.00;99.90;;;;;;4971031;28;19926;-76
2023/01/07 04:44:05;;;;;;;;;;;10.90;99.90;;;;;;4971323;28;19933;-75
2023/01/07 04:46:33;;;;;;;;;;;10.90;99.90;;;;;;4971213;28;20034;-74
2023/01/07 04:49:00;;;;;;;;;;;10.80;99.90;;;;;;4970672;28;20401;-75
2023/01/07 04:51:27;;;;;;;;;;;10.80;99.90;;;;;;4978207;28;20305;-76
2023/01/07 04:53:56;;;;;;;;;;;10.80;99.90;;;;;;4971329;28;19926;-75
2023/01/07 04:56:23;;;;;;;;;;;10.70;99.90;;;;;;4964891;28;19933;-76
2023/01/07 04:58:49;;;;;;;;;;;10.70;99.90;;;;;;4970693;28;20347;-73
2023/01/07 05:01:17;;;;;;;;;;;10.60;99.90;;;;;;4970966;28;20033;-75
2023/01/07 05:03:45;;;;;;;;;;;10.50;99.90;;;;;;4979838;28;19930;-77
2023/01/07 05:06:12;;;;;;;;;;;10.60;99.90;;;;;;4971262;28;19926;-75
2023/01/07 05:08:39;;;;;;;;;;;10.50;99.90;;;;;;4975712;28;19949;-74
2023/01/07 05:11:07;;;;;;;;;;;10.50;99.90;;;;;;4970825;28;19933;-75
2023/01/07 05:13:35;;;;;;;;;;;10.40;99.90;;;;;;4978260;28;19930;-75
2023/01/07 05:16:04;;;;;;;;;;;10.40;99.90;;;;;;4976476;28;19926;-73
2023/01/07 05:18:31;;;;;;;;;;;10.40;99.90;;;;;;4970795;28;20025;-74
2023/01/07 05:20:58;;;;;;;;;;;10.30;99.90;;;;;;4970550;28;19926;-75
2023/01/07 05:23:25;;;;;;;;;;;10.30;99.90;;;;;;4970660;28;19966;-73
2023/01/07 05:25:53;;;;;;;;;;;10.20;99.90;;;;;;4978574;28;19926;-74
2023/01/07 05:28:21;;;;;;;;;;;10.10;99.90;;;;;;4971028;28;19926;-72
2023/01/07 05:30:48;;;;;;;;;;;10.10;99.90;;;;;;4974005;28;19926;-76
2023/01/07 05:33:14;;;;;;;;;;;10.10;99.90;;;;;;4974674;28;20420;-75
2023/01/07 05:35:41;;;;;;;;;;;10.20;99.90;;;;;;4974702;28;20408;-72
2023/01/07 05:38:08;;;;;;;;;;;10.10;99.90;;;;;;4974315;28;19926;-75
2023/01/07 05:40:36;;;;;;;;;;;10.00;99.90;;;;;;4973867;28;19926;-73
2023/01/07 05:43:03;;;;;;;;;;;9.90;99.90;;;;;;4984881;28;19933;-75
2023/01/07 05:45:31;;;;;;;;;;;9.90;99.90;;;;;;4974393;28;20374;-74
2023/01/07 05:47:58;;;;;;;;;;;9.90;99.90;;;;;;4981658;28;19989;-72
2023/01/07 05:50:25;;;;;;;;;;;9.80;99.90;;;;;;4973822;28;19933;-76
2023/01/07 05:52:52;;;;;;;;;;;9.70;99.90;;;;;;4974127;28;20380;-76
2023/01/07 05:55:18;;;;;;;;;;;9.70;99.90;;;;;;4978326;28;20348;-73
2023/01/07 05:57:45;;;;;;;;;;;9.70;99.90;;;;;;4974166;28;19930;-75
2023/01/07 06:00:13;;;;;;;;;;;9.70;99.90;;;;;;4981168;28;19926;-74
2023/01/07 06:02:41;;;;;;;;;;;9.70;99.90;;;;;;4969898;28;19926;-74
2023/01/07 06:05:08;;;;;;;;;;;9.70;99.90;;;;;;4973677;28;19927;-75
2023/01/07 06:07:35;;;;;;;;;;;9.70;99.90;;;;;;4973836;28;19930;-74
2023/01/07 06:10:02;;;;;;;;;;;9.70;99.90;;;;;;4980951;28;19926;-75
2023/01/07 06:12:28;;;;;;;;;;;9.70;99.90;;;;;;4988620;28;20040;-77
2023/01/07 06:14:55;;;;;;;;;;;9.60;99.90;;;;;;4973950;28;19927;-74
2023/01/07 06:17:22;;;;;;;;;;;9.60;99.90;;;;;;4973536;28;19926;-75
2023/01/07 06:19:50;;;;;;;;;;;9.50;99.90;;;;;;4973248;28;19934;-75
2023/01/07 06:22:17;;;;;;;;;;;9.60;99.90;;;;;;4973240;28;19993;-74
2023/01/07 06:24:44;;;;;;;;;;;9.60;99.90;;;;;;4973366;28;19927;-74
2023/01/07 06:27:10;;;;;;;;;;;9.60;99.90;;;;;;4973190;28;19930;-76
2023/01/07 06:29:37;;;;;;;;;;;9.60;99.90;;;;;;4973128;28;19977;-74
2023/01/07 06:32:04;;;;;;;;;;;9.70;99.90;;;;;;4973463;28;19926;-74
2023/01/07 06:34:31;;;;;;;;;;;9.80;99.90;;;;;;4981967;28;20471;-73
2023/01/07 06:36:59;;;;;;;;;;;9.80;99.90;;;;;;4973563;28;19997;-74
2023/01/07 06:39:26;;;;;;;;;;;9.90;99.90;;;;;;4981861;28;20356;-75
2023/01/07 06:41:53;;;;;;;;;;;9.90;99.90;;;;;;4971543;28;19930;-76
2023/01/07 06:44:20;;;;;;;;;;;9.90;99.90;;;;;;4973118;28;19926;-75
2023/01/07 06:46:47;;;;;;;;;;;9.90;99.90;;;;;;4973234;28;20013;-76
2023/01/07 06:49:13;;;;;;;;;;;10.00;99.90;;;;;;4972474;28;19926;-75
2023/01/07 06:51:40;;;;;;;;;;;10.00;99.90;;;;;;4972900;28;19977;-74
2023/01/07 06:54:08;;;;;;;;;;;10.00;99.90;;;;;;4972898;28;20368;-75
2023/01/07 06:56:35;;;;;;;;;;;10.00;99.90;;;;;;4983275;28;19926;-73
2023/01/07 06:59:01;;;;;;;;;;;10.00;99.90;;;;;;4974359;28;19981;-75
2023/01/07 07:01:28;;;;;;;;;;;10.00;99.90;;;;;;4972807;28;19973;-75
2023/01/07 07:03:55;;;;;;;;;;;10.00;99.90;;;;;;4973664;28;19973;-72
2023/01/07 07:06:21;;;;;;;;;;;10.00;99.90;;;;;;4972753;28;20337;-73
2023/01/07 07:08:48;;;;;;;;;;;10.00;99.90;;;;;;4971994;28;19926;-74
2023/01/07 07:11:17;;;;;;;;;;;10.00;99.90;;;;;;4968958;28;19942;-75
2023/01/07 07:13:44;;;;;;;;;;;10.00;99.90;;;;;;4972325;28;19941;-75
2023/01/07 07:16:10;;;;;;;;;;;10.00;99.90;;;;;;4972474;28;19930;-75
2023/01/07 07:18:37;;;;;;;;;;;10.00;99.90;;;;;;4971884;28;19981;-77
2023/01/07 07:21:04;;;;;;;;;;;10.00;99.90;;;;;;4973218;28;19926;-75
2023/01/07 07:23:30;;;;;;;;;;;10.10;99.90;;;;;;4972175;28;19927;-76
2023/01/07 07:25:57;;;;;;;;;;;10.20;99.90;;;;;;4986121;28;19926;-78
2023/01/07 07:28:25;;;;;;;;;;;10.20;99.90;;;;;;4971856;28;19926;-75
2023/01/07 07:30:52;;;;;;;;;;;10.20;99.90;;;;;;4972822;28;19930;-75
2023/01/07 07:33:19;;;;;;;;;;;10.20;99.90;;;;;;4972212;28;19934;-74
2023/01/07 07:35:46;;;;;;;;;;;10.30;99.90;;;;;;4972558;28;19934;-79
2023/01/07 07:38:13;;;;;;;;;;;10.30;99.90;;;;;;4971814;28;19977;-73
2023/01/07 07:40:39;;;;;;;;;;;10.30;99.90;;;;;;4971424;28;19965;-74
2023/01/07 07:43:06;;;;;;;;;;;10.30;99.90;;;;;;4971426;28;19926;-77
2023/01/07 07:45:35;;;;;;;;;;;10.30;99.90;;;;;;4969283;28;19933;-74
2023/01/07 07:48:01;;;;;;;;;;;10.30;99.90;;;;;;4969117;28;19926;-74
2023/01/07 07:50:28;;;;;;;;;;;10.40;99.90;;;;;;4974222;28;19934;-74
2023/01/07 07:52:55;;;;;;;;;;;10.40;99.90;;;;;;4971188;28;19926;-75
2023/01/07 07:55:22;;;;;;;;;;;10.40;99.90;;;;;;4968233;28;19926;-74
2023/01/07 07:57:49;;;;;;;;;;;10.40;99.90;;;;;;4969031;28;19930;-74
2023/01/07 08:00:15;;;;;;;;;;;10.40;99.90;;;;;;4971972;28;19930;-75
2023/01/07 08:02:44;;;;;;;;;;;10.40;99.90;;;;;;4969736;28;19985;-73
2023/01/07 08:05:11;;;;;;;;;;;10.40;99.90;;;;;;4972661;28;19927;-74
2023/01/07 08:07:38;;;;;;;;;;;10.40;99.90;;;;;;4971938;28;19930;-75
2023/01/07 08:10:05;;;;;;;;;;;10.40;99.90;;;;;;4970607;28;20356;-73
2023/01/07 08:12:32;;;;;;;;;;;10.40;99.90;;;;;;4971265;28;20468;-75
2023/01/07 08:14:59;;;;;;;;;;;10.50;99.90;;;;;;4983033;28;19926;-74
2023/01/07 08:17:25;;;;;;;;;;;10.40;99.90;;;;;;4970596;28;19933;-74
2023/01/07 08:19:54;;;;;;;;;;;10.40;99.90;;;;;;4970240;28;19996;-75
2023/01/07 08:22:20;;;;;;;;;;;10.40;99.90;;;;;;4970189;28;20340;-77
2023/01/07 08:24:47;;;;;;;;;;;10.40;99.90;;;;;;4973240;28;19934;-72
2023/01/07 08:27:14;;;;;;;;;;;10.50;99.90;;;;;;4970572;28;19933;-75
2023/01/07 08:29:41;;;;;;;;;;;10.50;99.90;;;;;;4971712;28;20011;-77
2023/01/07 08:32:08;;;;;;;;;;;10.60;99.90;;;;;;4972563;28;19993;-75
2023/01/07 08:34:35;;;;;;;;;;;10.70;99.90;;;;;;4971076;28;20344;-76
2023/01/07 08:37:03;;;;;;;;;;;10.70;99.90;;;;;;4970594;28;19926;-75
2023/01/07 08:39:30;;;;;;;;;;;10.70;99.90;;;;;;4969227;28;19933;-75
2023/01/07 08:41:57;;;;;;;;;;;10.80;99.90;;;;;;4970668;28;19930;-73
2023/01/07 08:44:23;;;;;;;;;;;10.80;99.90;;;;;;4971533;28;19937;-75
2023/01/07 08:46:51;;;;;;;;;;;10.80;99.90;;;;;;4970720;28;19934;-76
2023/01/07 08:49:18;;;;;;;;;;;10.80;99.90;;;;;;4971219;28;19926;-77
2023/01/07 08:51:45;;;;;;;;;;;10.90;99.90;;;;;;4970134;28;19938;-75
2023/01/07 08:54:13;;;;;;;;;;;10.90;99.90;;;;;;4971808;28;19934;-72
2023/01/07 08:56:40;;;;;;;;;;;10.90;99.90;;;;;;4977141;28;19926;-77
2023/01/07 08:59:06;;;;;;;;;;;11.00;99.90;;;;;;4971466;28;19950;-74
2023/01/07 09:01:33;;;;;;;;;;;11.10;99.90;;;;;;4974909;28;19930;-75
2023/01/07 09:04:00;;;;;;;;;;;11.10;99.90;;;;;;4971111;28;20009;-75
2023/01/07 09:06:27;;;;;;;;;;;11.20;99.90;;;;;;4971055;28;19930;-75
2023/01/07 09:08:53;;;;;;;;;;;11.20;99.90;;;;;;4970134;28;19930;-74
2023/01/07 09:11:22;;;;;;;;;;;11.30;99.90;;;;;;4966582;28;19926;-74
2023/01/07 09:13:49;;;;;;;;;;;11.30;99.90;;;;;;4976838;28;19930;-75
2023/01/07 09:16:15;;;;;;;;;;;11.40;99.90;;;;;;4975645;28;19949;-76
2023/01/07 09:18:42;;;;;;;;;;;11.50;99.90;;;;;;4972523;28;19933;-75
2023/01/07 09:21:09;;;;;;;;;;;11.50;99.90;;;;;;4971606;28;20397;-75
2023/01/07 09:23:36;;;;;;;;;;;11.50;99.90;;;;;;4971156;28;19930;-75
2023/01/07 09:26:02;;;;;;;;;;;11.60;99.90;;;;;;4971270;28;19973;-77
2023/01/07 09:28:31;;;;;;;;;;;11.60;99.90;;;;;;4972697;28;19930;-75
2023/01/07 09:30:58;;;;;;;;;;;11.70;99.90;;;;;;4971578;28;19926;-75
2023/01/07 09:33:25;;;;;;;;;;;11.80;99.90;;;;;;4971015;28;20074;-76
2023/01/07 09:35:52;;;;;;;;;;;11.90;99.90;;;;;;4970576;28;19926;-75
2023/01/07 09:38:19;;;;;;;;;;;12.00;99.90;;;;;;4974611;28;19933;-75
2023/01/07 09:40:45;;;;;;;;;;;12.20;99.90;;;;;;4968325;28;19926;-75
2023/01/07 09:43:14;;;;;;;;;;;12.30;99.90;;;;;;4972429;28;19933;-77
2023/01/07 09:45:44;;;;;;;;;;;12.40;99.90;;;;;;4971543;28;19930;-76
2023/01/07 09:48:14;;;;;;;;;;;12.30;99.90;;;;;;4977400;28;19926;-75
2023/01/07 09:50:44;;;;;;;;;;;12.40;99.90;;;;;;4970858;28;20347;-75
2023/01/07 09:53:14;;;;;;;;;;;12.40;99.90;;;;;;4966672;28;20419;-78
2023/01/07 09:55:41;;;;;;;;;;;12.40;99.90;;;;;;4971134;28;19930;-74
2023/01/07 09:58:09;;;;;;;;;;;12.30;99.90;;;;;;4971124;28;20149;-75
2023/01/07 10:00:38;;;;;;;;;;;12.40;99.90;;;;;;4971009;28;19937;-75
2023/01/07 10:03:16;;;;;;;;;;;12.50;99.90;;;;;;4969109;28;20344;-76
2023/01/07 10:05:47;;;;;;;;;;;12.50;99.90;;;;;;4967309;28;19930;-75
2023/01/07 10:08:21;;;;;;;;;;;12.70;99.90;;;;;;4970047;28;20707;-73
2023/01/07 10:10:52;;;;;;;;;;;12.80;99.90;;;;;;4970217;28;19930;-77
2023/01/07 10:13:35;;;;;;;;;;;12.90;99.90;;;;;;4971042;28;19926;-76
2023/01/07 10:16:08;;;;;;;;;;;13.00;99.90;;;;;;4968761;28;20297;-76
2023/01/07 10:18:43;;;;;;;;;;;13.10;99.90;;;;;;4972536;28;19953;-75
2023/01/07 10:21:14;;;;;;;;;;;13.20;99.90;;;;;;4974083;28;19926;-74
2023/01/07 10:23:42;;;;;;;;;;;13.30;99.90;;;;;;4973553;28;20389;-75
2023/01/07 10:26:14;;;;;;;;;;;13.30;99.90;;;;;;4973672;28;19926;-77
2023/01/07 10:28:43;;;;;;;;;;;13.30;99.90;;;;;;4973837;28;19978;-71
2023/01/07 10:31:15;;;;;;;;;;;13.40;99.90;;;;;;4973252;28;19973;-75
2023/01/07 10:33:45;;;;;;;;;;;13.20;99.90;;;;;;4971431;28;19926;-70
2023/01/07 10:36:17;;;;;;;;;;;12.80;99.90;;;;;;4973645;28;20286;-74
2023/01/07 10:38:46;;;;;;;;;;;12.70;99.90;;;;;;4981829;28;19926;-75
2023/01/07 10:41:18;;;;;;;;;;;14.30;99.90;;;;;;4973232;28;20356;-78
2023/01/07 10:43:51;;;;;;;;;;;17.10;99.90;;;;;;4972995;28;19930;-75
2023/01/07 10:46:33;;;;;;;;;;;17.90;99.90;;;;;;4973350;28;19930;-78
2023/01/07 10:49:10;;;;;;;;;;;20.30;99.90;;;;;;4970220;28;19961;-76
2023/01/07 10:51:55;;;;;;;;;;;21.70;99.90;;;;;;4973361;28;20352;-76
2023/01/07 10:54:31;;;;;;;;;;;22.40;99.90;;;;;;4971047;28;19989;-74
2023/01/07 10:57:01;;;;;;;;;;;21.40;99.90;;;;;;4970399;28;20393;-77
2023/01/07 10:59:27;;;;;;;;;;;19.30;99.90;;;;;;4981681;28;19926;-75
2023/01/07 11:01:56;;;;;;;;;;;19.70;99.90;;;;;;4972869;28;19934;-78
2023/01/07 11:04:24;;;;;;;;;;;19.30;99.90;;;;;;4972534;28;19926;-77
2023/01/07 11:06:53;;;;;;;;;;;18.90;99.90;;;;;;4971624;28;19926;-75
2023/01/07 11:09:22;;;;;;;;;;;19.10;99.90;;;;;;4986543;28;20274;-74
2023/01/07 11:11:50;;;;;;;;;;;17.40;99.90;;;;;;4972648;28;19926;-78
2023/01/07 11:14:20;;;;;;;;;;;15.80;99.90;;;;;;4972318;28;20305;-76
2023/01/07 11:16:49;;;;;;;;;;;15.40;99.90;;;;;;4973074;28;20397;-77
2023/01/07 11:19:16;;;;;;;;;;;16.70;99.90;;;;;;4972509;28;19926;-75
2023/01/07 11:21:47;;;;;;;;;;;16.40;99.90;;;;;;4972769;28;19926;-75
2023/01/07 11:24:30;;;;;;;;;;;16.00;99.90;;;;;;4972243;28;20405;-77
2023/01/07 11:27:02;;;;;;;;;;;15.90;99.90;;;;;;4970602;28;19933;-75
2023/01/07 11:29:33;;;;;;;;;;;16.20;99.90;;;;;;4964550;28;19926;-74
2023/01/07 11:32:01;;;;;;;;;;;14.80;99.90;;;;;;4979110;28;19938;-74
2023/01/07 11:34:30;;;;;;;;;;;14.50;99.90;;;;;;4975271;28;19926;-75
2023/01/07 11:36:58;;;;;;;;;;;13.80;99.90;;;;;;4970505;28;19942;-75
2023/01/07 11:39:28;;;;;;;;;;;13.60;99.90;;;;;;4972513;28;20342;-73
2023/01/07 11:41:56;;;;;;;;;;;13.40;99.90;;;;;;4972922;28;19926;-76
2023/01/07 11:44:25;;;;;;;;;;;15.70;99.90;;;;;;4970455;28;20210;-77
2023/01/07 11:46:52;;;;;;;;;;;15.70;99.90;;;;;;4972623;28;20012;-74
2023/01/07 11:49:23;;;;;;;;;;;18.40;99.90;;;;;;4972418;28;20348;-77
2023/01/07 11:51:50;;;;;;;;;;;21.20;99.90;;;;;;4972474;28;20277;-73
2023/01/07 11:54:20;;;;;;;;;;;20.20;99.90;;;;;;4972378;28;19958;-76
2023/01/07 11:56:47;;;;;;;;;;;21.40;99.90;;;;;;4972831;28;19929;-75
2023/01/07 11:59:16;;;;;;;;;;;23.40;99.90;;;;;;4973620;28;19926;-77
2023/01/07 12:01:44;;;;;;;;;;;22.80;99.90;;;;;;4972469;28;19962;-78
2023/01/07 12:04:13;;;;;;;;;;;22.60;99.90;;;;;;4972527;28;19934;-73
2023/01/07 12:06:41;;;;;;;;;;;23.40;99.90;;;;;;4978530;28;19926;-76
2023/01/07 12:09:15;;;;;;;;;;;24.20;99.90;;;;;;4971975;28;19926;-76
2023/01/07 12:11:44;;;;;;;;;;;24.40;99.90;;;;;;4972302;28;20455;-75
2023/01/07 12:14:20;;;;;;;;;;;24.20;99.90;;;;;;4971099;28;19926;-77
2023/01/07 12:16:49;;;;;;;;;;;23.80;99.90;;;;;;4972760;28;19933;-75
2023/01/07 12:19:23;;;;;;;;;;;21.80;99.90;;;;;;4971995;28;20016;-75
2023/01/07 12:22:07;;;;;;;;;;;21.70;99.90;;;;;;4972411;28;19930;-77
2023/01/07 12:24:45;;;;;;;;;;;20.10;99.90;;;;;;4972598;28;19933;-75
2023/01/07 12:27:20;;;;;;;;;;;18.40;99.90;;;;;;4959196;28;19930;-75
2023/01/07 12:29:52;;;;;;;;;;;16.50;99.90;;;;;;4972076;28;19938;-75
2023/01/07 12:32:28;;;;;;;;;;;15.50;99.90;;;;;;4969100;28;19926;-75
2023/01/07 12:34:58;;;;;;;;;;;15.00;99.90;;;;;;4983853;28;20344;-74
2023/01/07 12:37:28;;;;;;;;;;;14.50;99.90;;;;;;4973440;28;20361;-77
2023/01/07 12:39:58;;;;;;;;;;;16.40;99.90;;;;;;4972902;28;19934;-75
2023/01/07 12:42:28;;;;;;;;;;;15.80;99.90;;;;;;4972347;28;19926;-75
2023/01/07 12:44:57;;;;;;;;;;;16.20;99.90;;;;;;4967063;28;20460;-76
2023/01/07 12:47:25;;;;;;;;;;;16.00;99.90;;;;;;4971895;28;19926;-76
2023/01/07 12:49:56;;;;;;;;;;;15.30;99.90;;;;;;4969132;28;19930;-75
2023/01/07 12:52:27;;;;;;;;;;;14.30;99.90;;;;;;4971808;28;19926;-75
2023/01/07 12:54:55;;;;;;;;;;;13.60;99.90;;;;;;4968838;28;19980;-74
2023/01/07 12:57:24;;;;;;;;;;;13.20;99.90;;;;;;4969956;28;19926;-76
2023/01/07 12:59:58;;;;;;;;;;;13.40;99.90;;;;;;4972647;28;19926;-74
2023/01/07 13:02:31;;;;;;;;;;;13.20;99.90;;;;;;4971586;28;19930;-76
2023/01/07 13:05:02;;;;;;;;;;;13.60;99.90;;;;;;4970402;28;19930;-75
2023/01/07 13:07:35;;;;;;;;;;;13.60;99.90;;;;;;4982130;28;20005;-76
2023/01/07 13:10:03;;;;;;;;;;;14.10;99.90;;;;;;4971572;28;20282;-74
2023/01/07 13:12:44;;;;;;;;;;;13.90;99.90;;;;;;4973111;28;19930;-75
2023/01/07 13:15:16;;;;;;;;;;;14.40;99.90;;;;;;4971679;28;19926;-76
2023/01/07 13:17:43;;;;;;;;;;;15.10;99.90;;;;;;4969640;28;20377;-75
2023/01/07 13:20:12;;;;;;;;;;;15.20;99.90;;;;;;4971244;28;19933;-72
2023/01/07 13:22:40;;;;;;;;;;;14.60;99.90;;;;;;4971477;28;19926;-75
2023/01/07 13:25:12;;;;;;;;;;;14.50;99.90;;;;;;4971754;28;20348;-74
2023/01/07 13:27:56;;;;;;;;;;;16.10;99.90;;;;;;4971561;28;19926;-74
2023/01/07 13:30:26;;;;;;;;;;;17.70;99.90;;;;;;4963825;28;20352;-76
2023/01/07 13:33:02;;;;;;;;;;;18.60;99.90;;;;;;4971899;28;20043;-76
2023/01/07 13:35:41;;;;;;;;;;;19.50;99.90;;;;;;4987070;28;19930;-75
2023/01/07 13:38:15;;;;;;;;;;;19.70;99.90;;;;;;4971570;28;20016;-73
2023/01/07 13:40:54;;;;;;;;;;;19.50;99.90;;;;;;4966195;28;19926;-75
2023/01/07 13:43:26;;;;;;;;;;;18.60;99.90;;;;;;4967892;28;19926;-73
2023/01/07 13:45:56;;;;;;;;;;;18.70;99.90;;;;;;4960888;28;19942;-77
2023/01/07 13:48:24;;;;;;;;;;;18.20;99.90;;;;;;4965186;28;19984;-74
2023/01/07 13:50:56;;;;;;;;;;;18.40;99.90;;;;;;4974352;28;19993;-75
2023/01/07 13:53:31;;;;;;;;;;;17.40;99.90;;;;;;4970173;28;19926;-75
2023/01/07 13:56:13;;;;;;;;;;;17.60;99.90;;;;;;4991148;28;19930;-76
2023/01/07 13:58:44;;;;;;;;;;;17.30;99.90;;;;;;4971329;28;20469;-73
2023/01/07 14:01:13;;;;;;;;;;;17.40;99.90;;;;;;4975174;28;19933;-73
2023/01/07 14:03:41;;;;;;;;;;;17.50;99.90;;;;;;4975160;28;19926;-76
2023/01/07 14:06:41;;;;;;;;;;;17.10;99.90;;;;;;4973408;28;20417;-74
2023/01/07 14:09:29;;;;;;;;;;;16.40;99.90;;;;;;4974503;28;19957;-76
2023/01/07 14:12:08;;;;;;;;;;;15.50;99.90;;;;;;4971532;28;19954;-75
2023/01/07 14:14:38;;;;;;;;;;;15.30;99.90;;;;;;4983570;28;19926;-76
2023/01/07 14:17:13;;;;;;;;;;;14.80;99.90;;;;;;4974942;28;20341;-77
2023/01/07 14:19:44;;;;;;;;;;;14.50;99.90;;;;;;4982841;28;19926;-76
2023/01/07 14:22:17;;;;;;;;;;;14.30;99.90;;;;;;4974689;28;19933;-77
2023/01/07 14:25:01;;;;;;;;;;;14.50;99.90;;;;;;4974432;28;20397;-76
2023/01/07 14:27:40;;;;;;;;;;;14.50;99.90;;;;;;4976708;28;19926;-76
2023/01/07 14:30:15;;;;;;;;;;;14.20;99.90;;;;;;4972651;28;19930;-75
2023/01/07 14:32:44;;;;;;;;;;;14.00;99.90;;;;;;4974631;28;19926;-75
2023/01/07 14:35:22;;;;;;;;;;;13.70;99.90;;;;;;4974345;28;19934;-73
2023/01/07 14:37:48;;;;;;;;;;;13.40;99.90;;;;;;4974490;28;19930;-72
2023/01/07 14:40:36;;;;;;;;;;;13.10;99.90;;;;;;4973787;28;20409;-74
2023/01/07 14:43:03;;;;;;;;;;;13.30;99.90;;;;;;4974337;28;20282;-75
2023/01/07 14:45:48;;;;;;;;;;;13.80;99.90;;;;;;4977193;28;20360;-73
2023/01/07 14:48:33;;;;;;;;;;;14.10;99.90;;;;;;4972911;28;20365;-74
2023/01/07 14:51:06;;;;;;;;;;;14.30;99.90;;;;;;4987646;28;20385;-76
2023/01/07 14:53:41;;;;;;;;;;;14.40;99.90;;;;;;4974145;28;19929;-74
2023/01/07 14:56:17;;;;;;;;;;;13.90;99.90;;;;;;4968478;28;20469;-76
2023/01/07 14:58:54;;;;;;;;;;;13.50;99.90;;;;;;4973654;28;19926;-77
2023/01/07 15:01:27;;;;;;;;;;;13.30;99.90;;;;;;4973555;28;20014;-77
2023/01/07 15:04:13;;;;;;;;;;;13.00;99.90;;;;;;4979053;28;19926;-76
2023/01/07 15:06:42;;;;;;;;;;;12.80;99.90;;;;;;4964696;28;19989;-76
2023/01/07 15:17:27;;;;;;;;;;;12.00;99.90;;;;;;4979360;28;19922;-77
2023/01/07 15:19:54;;;;;;;;;;;11.90;99.90;;;;;;4973140;28;19926;-76
2023/01/07 15:22:29;;;;;;;;;;;11.70;99.90;;;;;;4983522;28;19942;-75
2023/01/07 15:25:00;;;;;;;;;;;11.60;99.90;;;;;;4970368;28;19926;-76
2023/01/07 15:27:31;;;;;;;;;;;11.40;99.90;;;;;;4973660;28;20356;-76
2023/01/07 15:30:01;;;;;;;;;;;11.20;99.90;;;;;;4972732;28;20398;-76
2023/01/07 15:32:34;;;;;;;;;;;11.10;99.90;;;;;;4973482;28;19934;-76
2023/01/07 15:35:08;;;;;;;;;;;10.90;99.90;;;;;;4966604;28;19930;-76
2023/01/07 15:37:36;;;;;;;;;;;10.80;99.90;;;;;;4973635;28;19927;-75
2023/01/07 15:40:03;;;;;;;;;;;10.70;99.90;;;;;;4972429;28;19997;-77
2023/01/07 15:42:31;;;;;;;;;;;10.60;99.90;;;;;;4973273;28;19926;-76
2023/01/07 15:44:59;;;;;;;;;;;10.50;99.90;;;;;;4972973;28;19928;-78
2023/01/07 15:47:30;;;;;;;;;;;10.40;99.90;;;;;;4979892;28;19993;-76
2023/01/07 15:49:57;;;;;;;;;;;10.40;99.90;;;;;;4972780;28;19989;-76
2023/01/07 15:52:25;;;;;;;;;;;10.20;99.90;;;;;;4982264;28;19981;-75
2023/01/07 15:54:53;;;;;;;;;;;10.20;99.90;;;;;;4981262;28;19977;-76
2023/01/07 15:57:27;;;;;;;;;;;10.10;99.90;;;;;;4967069;28;19926;-76
2023/01/07 15:59:54;;;;;;;;;;;10.10;99.90;;;;;;4982371;28;19926;-76
2023/01/07 16:02:23;;;;;;;;;;;10.10;99.90;;;;;;4995527;23;19926;-73
2023/01/07 16:04:57;;;;;;;;;;;10.00;99.90;;;;;;4972490;28;20400;-72
2023/01/07 16:07:26;;;;;;;;;;;10.00;99.90;;;;;;4969290;28;19926;-73
2023/01/07 16:09:54;;;;;;;;;;;9.90;99.90;;;;;;4969913;28;19934;-72
2023/01/07 16:12:29;;;;;;;;;;;9.90;99.90;;;;;;4976399;28;20172;-72
2023/01/07 16:14:56;;;;;;;;;;;10.00;99.90;;;;;;4970798;28;20320;-73
2023/01/07 16:17:23;;;;;;;;;;;10.00;99.90;;;;;;4971554;28;19937;-73
2023/01/07 16:19:50;;;;;;;;;;;10.10;99.90;;;;;;4973268;28;19926;-71
2023/01/07 16:22:18;;;;;;;;;;;10.10;99.90;;;;;;4967397;28;19926;-72
2023/01/07 16:24:46;;;;;;;;;;;10.10;99.90;;;;;;4973387;28;19934;-72
2023/01/07 16:27:15;;;;;;;;;;;10.10;99.90;;;;;;4973545;28;20550;-72
2023/01/07 16:29:48;;;;;;;;;;;10.10;99.90;;;;;;4976980;28;20366;-72
2023/01/07 16:32:15;;;;;;;;;;;10.10;99.90;;;;;;4973941;28;19934;-73
2023/01/07 16:34:51;;;;;;;;;;;10.10;99.90;;;;;;4973523;28;19957;-72
2023/01/07 16:37:21;;;;;;;;;;;10.10;99.90;;;;;;4973572;28;20464;-73
2023/01/07 16:39:50;;;;;;;;;;;10.10;99.90;;;;;;4975089;28;19926;-73
2023/01/07 16:42:21;;;;;;;;;;;10.10;99.90;;;;;;4971511;28;20024;-72
2023/01/07 16:44:59;;;;;;;;;;;10.10;99.90;;;;;;4973049;28;19926;-72
2023/01/07 16:47:27;;;;;;;;;;;10.20;99.90;;;;;;4974555;28;19978;-78
2023/01/07 16:49:54;;;;;;;;;;;10.10;99.90;;;;;;4963107;28;19984;-72
2023/01/07 16:52:22;;;;;;;;;;;10.10;99.90;;;;;;4968743;28;19926;-73
2023/01/07 16:54:49;;;;;;;;;;;10.10;99.90;;;;;;4970826;28;20011;-79
2023/01/07 16:57:27;;;;;;;;;;;10.10;99.90;;;;;;4971582;28;20324;-76
2023/01/07 16:59:55;;;;;;;;;;;10.10;99.90;;;;;;4983810;28;19926;-71
2023/01/07 17:02:28;;;;;;;;;;;10.20;99.90;;;;;;4970767;28;20405;-70
2023/01/07 17:04:55;;;;;;;;;;;10.30;99.90;;;;;;4970769;28;19933;-74
2023/01/07 17:07:23;;;;;;;;;;;10.40;99.90;;;;;;4969591;28;19988;-71
2023/01/07 17:09:52;;;;;;;;;;;10.40;99.90;;;;;;4970324;28;20030;-71
2023/01/07 17:12:34;;;;;;;;;;;10.50;99.90;;;;;;4970727;28;19930;-70
2023/01/07 17:15:01;;;;;;;;;;;10.60;99.90;;;;;;4968444;28;20349;-70
2023/01/07 17:17:30;;;;;;;;;;;10.70;99.90;;;;;;4970792;28;19926;-71
2023/01/07 17:20:02;;;;;;;;;;;10.70;99.90;;;;;;4968466;28;19927;-71
2023/01/07 17:22:31;;;;;;;;;;;10.90;99.90;;;;;;4970304;28;20440;-71
2023/01/07 17:25:05;;;;;;;;;;;10.90;99.90;;;;;;4965775;28;20341;-71
2023/01/07 17:27:34;;;;;;;;;;;11.00;99.90;;;;;;4974619;28;19930;-72
2023/01/07 17:30:02;;;;;;;;;;;11.10;99.90;;;;;;4974274;28;19933;-71
2023/01/07 17:32:30;;;;;;;;;;;11.10;99.90;;;;;;4974833;28;20024;-71
2023/01/07 17:35:00;;;;;;;;;;;11.10;99.90;;;;;;4974460;28;19930;-71
2023/01/07 17:37:27;;;;;;;;;;;11.10;99.90;;;;;;4974327;28;19926;-70
2023/01/07 17:39:54;;;;;;;;;;;11.20;99.90;;;;;;4981105;28;19930;-70
2023/01/07 17:45:13;;;;;;;;;;;11.20;99.90;;;;;;4988883;28;20397;-75
2023/01/07 17:47:40;;;;;;;;;;;11.20;99.90;;;;;;4970237;28;19956;-73
2023/01/07 17:50:07;;;;;;;;;;;11.20;99.90;;;;;;4974832;28;19933;-71
2023/01/07 17:52:33;;;;;;;;;;;11.20;99.90;;;;;;4973775;28;19934;-72
2023/01/07 17:55:00;;;;;;;;;;;11.20;99.90;;;;;;4973748;28;19926;-71
2023/01/07 17:57:27;;;;;;;;;;;11.30;99.90;;;;;;4973937;28;19926;-71
2023/01/07 17:59:54;;;;;;;;;;;11.30;99.90;;;;;;4973126;28;19930;-75
2023/01/07 18:02:25;;;;;;;;;;;11.30;99.90;;;;;;4974095;28;19926;-75
2023/01/07 18:04:51;;;;;;;;;;;11.30;99.90;;;;;;4973253;28;19926;-74
2023/01/07 18:07:18;;;;;;;;;;;11.30;99.90;;;;;;4973830;28;19930;-76
2023/01/07 18:09:45;;;;;;;;;;;11.40;99.90;;;;;;4973997;28;19961;-74
2023/01/07 18:12:29;;;;;;;;;;;11.40;99.90;;;;;;4971224;28;20361;-76
2023/01/07 18:14:56;;;;;;;;;;;11.40;99.90;;;;;;4966547;28;20308;-71
2023/01/07 18:17:24;;;;;;;;;;;11.40;99.90;;;;;;4975111;28;20405;-72
2023/01/07 18:19:51;;;;;;;;;;;11.40;99.90;;;;;;4973038;28;19926;-74
2023/01/07 18:22:18;;;;;;;;;;;11.40;99.90;;;;;;4972154;28;19926;-73
2023/01/07 18:24:45;;;;;;;;;;;11.40;99.90;;;;;;4971227;28;20000;-76
2023/01/07 18:27:13;;;;;;;;;;;11.40;99.90;;;;;;4975009;28;19926;-76
2023/01/07 18:29:40;;;;;;;;;;;11.50;99.90;;;;;;4980524;28;19985;-76
2023/01/07 18:32:06;;;;;;;;;;;11.40;99.90;;;;;;4974181;28;20352;-74
2023/01/07 18:34:35;;;;;;;;;;;11.40;99.90;;;;;;4978832;28;19926;-74
2023/01/07 18:37:01;;;;;;;;;;;11.40;99.90;;;;;;4970652;28;19930;-72
2023/01/07 18:39:28;;;;;;;;;;;11.40;99.90;;;;;;4973049;28;20460;-74
2023/01/07 18:41:55;;;;;;;;;;;11.40;99.90;;;;;;4973109;28;19937;-75
2023/01/07 18:44:22;;;;;;;;;;;11.40;99.90;;;;;;4970630;28;19926;-75